createdAt,value
2022-11-24T00:00:53.452Z,4.00
2022-11-24T00:03:20.028Z,3.90
2022-11-24T00:05:46.544Z,3.40
2022-11-24T00:08:13.362Z,3.50
2022-11-24T00:10:39.825Z,3.60
2022-11-24T00:13:06.284Z,3.90
2022-11-24T00:15:32.738Z,3.37
2022-11-24T00:17:59.344Z,3.83
2022-11-24T00:20:25.729Z,3.70
2022-11-24T00:22:52.108Z,4.00
2022-11-24T00:25:18.562Z,3.63
2022-11-24T00:27:45.150Z,3.77
2022-11-24T00:30:12.054Z,3.60
2022-11-24T00:32:38.431Z,3.70
2022-11-24T00:35:05.281Z,4.10
2022-11-24T00:37:31.686Z,4.60
2022-11-24T00:39:58.129Z,3.77
2022-11-24T00:42:24.555Z,4.53
2022-11-24T00:44:50.978Z,4.63
2022-11-24T00:47:17.582Z,4.17
2022-11-24T00:49:44.072Z,4.13
2022-11-24T00:52:10.467Z,4.47
2022-11-24T00:54:36.923Z,3.90
2022-11-24T00:57:03.351Z,4.57
2022-11-24T00:59:29.828Z,4.67
2022-11-24T01:01:56.511Z,4.30
2022-11-24T01:04:22.968Z,4.13
2022-11-24T01:06:49.339Z,4.37
2022-11-24T01:09:15.880Z,4.20
2022-11-24T01:12:00.991Z,4.90
2022-11-24T01:14:27.788Z,4.50
2022-11-24T01:16:54.639Z,5.00
2022-11-24T01:19:21.661Z,4.37
2022-11-24T01:21:48.450Z,4.80
2022-11-24T01:24:15.687Z,4.73
2022-11-24T01:26:42.391Z,4.87
2022-11-24T01:29:10.734Z,4.80
2022-11-24T01:31:37.237Z,5.13
2022-11-24T01:34:03.981Z,5.97
2022-11-24T01:36:30.490Z,5.60
2022-11-24T01:38:56.895Z,5.00
2022-11-24T01:41:24.936Z,5.50
2022-11-24T01:43:52.684Z,5.27
2022-11-24T01:46:26.561Z,6.30
2022-11-24T01:49:01.362Z,5.60
2022-11-24T01:51:30.203Z,6.53
2022-11-24T01:54:00.259Z,6.70
2022-11-24T01:56:27.074Z,6.33
2022-11-24T01:58:55.812Z,6.40
2022-11-24T02:01:22.302Z,6.57
2022-11-24T02:03:49.431Z,6.20
2022-11-24T02:06:21.513Z,7.00
2022-11-24T02:08:53.248Z,6.10
2022-11-24T02:11:21.518Z,6.87
2022-11-24T02:13:48.364Z,6.73
2022-11-24T02:16:14.878Z,6.20
2022-11-24T02:18:42.176Z,6.97
2022-11-24T02:21:09.942Z,7.40
2022-11-24T02:24:06.741Z,7.07
2022-11-24T02:26:40.620Z,7.53
2022-11-24T02:29:07.423Z,6.67
2022-11-24T02:31:34.018Z,7.30
2022-11-24T02:34:00.456Z,6.77
2022-11-24T02:36:26.930Z,7.07
2022-11-24T02:38:53.376Z,7.67
2022-11-24T02:41:22.182Z,6.60
2022-11-24T02:43:53.130Z,6.73
2022-11-24T02:46:19.655Z,7.10
2022-11-24T02:48:46.090Z,7.67
2022-11-24T02:51:12.731Z,6.93
2022-11-24T02:53:39.328Z,7.33
2022-11-24T02:56:06.102Z,6.77
2022-11-24T02:58:32.501Z,6.27
2022-11-24T03:00:59.776Z,7.10
2022-11-24T03:03:27.052Z,7.30
2022-11-24T03:05:54.060Z,6.90
2022-11-24T03:08:20.542Z,6.57
2022-11-24T03:10:47.310Z,6.43
2022-11-24T03:13:13.740Z,7.43
2022-11-24T03:15:40.284Z,6.70
2022-11-24T03:18:09.053Z,7.20
2022-11-24T03:20:35.644Z,7.37
2022-11-24T03:23:02.277Z,7.73
2022-11-24T03:25:28.871Z,6.37
2022-11-24T03:27:57.218Z,6.83
2022-11-24T03:30:23.711Z,6.97
2022-11-24T03:32:52.706Z,7.23
2022-11-24T03:35:20.347Z,6.90
2022-11-24T03:37:46.845Z,7.00
2022-11-24T03:40:13.567Z,7.93
2022-11-24T03:42:41.008Z,7.60
2022-11-24T03:47:54.809Z,6.43
2022-11-24T03:50:21.289Z,6.43
2022-11-24T03:52:47.697Z,5.57
2022-11-24T03:55:14.311Z,6.67
2022-11-24T03:57:40.724Z,6.60
2022-11-24T04:00:08.101Z,7.70
2022-11-24T04:02:34.862Z,7.43
2022-11-24T04:05:02.023Z,7.70
2022-11-24T04:07:28.680Z,7.33
2022-11-24T04:09:55.177Z,7.70
2022-11-24T04:12:40.355Z,7.80
2022-11-24T04:15:07.160Z,7.73
2022-11-24T04:17:33.736Z,7.13
2022-11-24T04:20:00.534Z,7.00
2022-11-24T04:22:26.961Z,7.70
2022-11-24T04:24:53.579Z,6.80
2022-11-24T04:27:20.153Z,6.57
2022-11-24T04:29:46.679Z,7.03
2022-11-24T04:32:13.080Z,6.90
2022-11-24T04:34:39.559Z,7.53
2022-11-24T04:37:06.025Z,6.50
2022-11-24T04:39:32.571Z,7.37
2022-11-24T04:41:58.981Z,7.63
2022-11-24T04:44:25.420Z,7.07
2022-11-24T04:46:52.011Z,7.47
2022-11-24T04:49:19.089Z,7.40
2022-11-24T04:51:45.913Z,6.87
2022-11-24T04:54:13.504Z,7.20
2022-11-24T04:56:40.953Z,7.63
2022-11-24T04:59:08.619Z,7.17
2022-11-24T05:01:35.783Z,7.23
2022-11-24T05:04:02.449Z,8.33
2022-11-24T05:06:28.962Z,8.83
2022-11-24T05:08:55.373Z,8.60
2022-11-24T05:11:21.820Z,8.60
2022-11-24T05:13:48.357Z,7.63
2022-11-24T05:16:14.988Z,8.27
2022-11-24T05:18:41.601Z,9.23
2022-11-24T05:21:08.160Z,8.90
2022-11-24T05:23:34.595Z,8.50
2022-11-24T05:26:01.653Z,8.50
2022-11-24T05:28:28.736Z,9.33
2022-11-24T05:30:59.047Z,9.27
2022-11-24T05:33:27.108Z,7.43
2022-11-24T05:35:53.607Z,8.57
2022-11-24T05:38:21.053Z,8.63
2022-11-24T05:40:47.468Z,9.20
2022-11-24T05:43:15.587Z,7.83
2022-11-24T05:45:42.680Z,7.60
2022-11-24T05:48:11.664Z,8.50
2022-11-24T05:50:38.547Z,8.33
2022-11-24T05:53:06.412Z,8.83
2022-11-24T05:55:33.254Z,7.63
2022-11-24T05:58:00.840Z,8.87
2022-11-24T06:00:28.074Z,8.53
2022-11-24T06:02:54.742Z,8.57
2022-11-24T06:05:21.707Z,8.10
2022-11-24T06:07:48.260Z,8.37
2022-11-24T06:10:16.282Z,8.67
2022-11-24T06:12:42.963Z,8.03
2022-11-24T06:15:09.836Z,8.60
2022-11-24T06:17:36.309Z,8.30
2022-11-24T06:20:03.130Z,8.63
2022-11-24T06:22:29.527Z,9.03
2022-11-24T06:24:55.944Z,8.53
2022-11-24T06:27:23.177Z,8.70
2022-11-24T06:29:49.669Z,8.97
2022-11-24T06:32:16.285Z,9.00
2022-11-24T06:34:42.948Z,9.00
2022-11-24T06:37:09.787Z,8.87
2022-11-24T06:39:36.512Z,8.23
2022-11-24T06:42:03.592Z,8.37
2022-11-24T06:44:30.083Z,9.77
2022-11-24T06:46:56.493Z,8.63
2022-11-24T06:49:23.121Z,9.30
2022-11-24T06:51:50.324Z,8.33
2022-11-24T06:54:26.858Z,7.77
2022-11-24T06:56:57.464Z,10.60
2022-11-24T06:59:24.276Z,9.17
2022-11-24T07:01:50.846Z,8.30
2022-11-24T07:04:17.769Z,8.40
2022-11-24T07:06:44.838Z,7.80
2022-11-24T07:09:12.805Z,8.37
2022-11-24T07:11:39.981Z,8.13
2022-11-24T07:14:06.863Z,8.63
2022-11-24T07:16:33.875Z,9.23
2022-11-24T07:19:00.697Z,8.77
2022-11-24T07:21:28.299Z,9.10
2022-11-24T07:23:56.536Z,8.90
2022-11-24T07:26:23.653Z,8.20
2022-11-24T07:28:50.798Z,9.87
2022-11-24T07:31:20.402Z,7.97
2022-11-24T07:33:51.175Z,8.17
2022-11-24T07:36:18.092Z,7.93
2022-11-24T07:38:44.760Z,8.10
2022-11-24T07:41:12.970Z,7.73
2022-11-24T07:43:40.053Z,7.33
2022-11-24T07:46:08.137Z,7.67
2022-11-24T07:48:34.813Z,9.10
2022-11-24T07:51:04.598Z,9.00
2022-11-24T07:53:32.213Z,13.80
2022-11-24T07:56:00.407Z,9.57
2022-11-24T07:58:32.403Z,10.40
2022-11-24T08:01:00.074Z,10.23
2022-11-24T08:03:26.661Z,15.80
2022-11-24T08:06:23.205Z,9.83
2022-11-24T08:08:46.777Z,7.07
2022-11-24T08:11:15.872Z,7.17
2022-11-24T08:13:43.031Z,7.07
2022-11-24T08:16:15.483Z,8.00
2022-11-24T08:18:42.411Z,7.03
2022-11-24T08:21:13.023Z,8.23
2022-11-24T08:23:39.531Z,7.27
2022-11-24T08:26:08.982Z,8.13
2022-11-24T08:28:35.616Z,7.77
2022-11-24T08:31:10.490Z,7.73
2022-11-24T08:33:37.430Z,6.33
2022-11-24T08:36:09.041Z,6.97
2022-11-24T08:38:35.855Z,7.40
2022-11-24T08:41:03.742Z,7.90
2022-11-24T08:43:30.290Z,6.70
2022-11-24T08:46:00.749Z,7.17
2022-11-24T08:48:27.830Z,8.70
2022-11-24T08:50:54.254Z,8.47
2022-11-24T08:53:20.680Z,7.57
2022-11-24T08:55:47.127Z,7.10
2022-11-24T08:58:13.590Z,7.20
2022-11-24T09:00:40.237Z,7.53
2022-11-24T09:03:06.691Z,8.00
2022-11-24T09:08:20.677Z,6.87
2022-11-24T09:10:47.409Z,8.77
2022-11-24T09:13:14.024Z,6.80
2022-11-24T09:15:40.655Z,6.90
2022-11-24T09:18:07.339Z,6.73
2022-11-24T09:20:33.868Z,6.13
2022-11-24T09:23:00.396Z,6.43
2022-11-24T09:25:27.154Z,6.10
2022-11-24T09:27:54.569Z,7.30
2022-11-24T09:30:21.114Z,6.23
2022-11-24T09:32:47.665Z,6.37
2022-11-24T09:35:14.455Z,6.73
2022-11-24T09:37:41.335Z,6.93
2022-11-24T09:40:12.401Z,5.90
2022-11-24T09:42:45.239Z,5.77
2022-11-24T09:46:05.601Z,5.60
2022-11-24T09:48:36.666Z,5.50
2022-11-24T09:51:04.562Z,5.50
2022-11-24T09:53:55.304Z,4.80
2022-11-24T09:56:25.652Z,4.40
2022-11-24T09:58:55.036Z,4.67
2022-11-24T10:01:43.610Z,5.20
2022-11-24T10:04:26.847Z,4.13
2022-11-24T10:07:11.932Z,4.83
2022-11-24T10:09:53.471Z,5.47
2022-11-24T10:13:04.991Z,4.50
2022-11-24T10:16:08.364Z,4.10
2022-11-24T10:18:38.159Z,4.83
2022-11-24T10:21:28.149Z,4.93
2022-11-24T10:24:21.025Z,3.60
2022-11-24T10:27:02.112Z,4.20
2022-11-24T10:29:39.973Z,5.83
2022-11-24T10:32:20.176Z,4.67
2022-11-24T10:34:50.816Z,4.53
2022-11-24T10:37:28.526Z,4.33
2022-11-24T10:40:26.976Z,3.83
2022-11-24T10:42:59.817Z,3.87
2022-11-24T10:45:27.995Z,4.57
2022-11-24T10:47:54.429Z,4.00
2022-11-24T10:50:36.803Z,4.90
2022-11-24T10:53:10.743Z,4.80
2022-11-24T10:55:56.316Z,4.53
2022-11-24T10:58:26.989Z,4.40
2022-11-24T11:00:54.581Z,4.77
2022-11-24T11:03:26.244Z,4.57
2022-11-24T11:06:11.128Z,4.53
2022-11-24T11:08:39.907Z,4.70
2022-11-24T11:11:15.893Z,4.33
2022-11-24T11:14:01.597Z,4.73
2022-11-24T11:16:38.951Z,4.93
2022-11-24T11:19:47.841Z,4.47
2022-11-24T11:22:13.027Z,4.73
2022-11-24T11:24:41.345Z,4.83
2022-11-24T11:27:22.827Z,4.43
2022-11-24T11:35:41.732Z,5.50
2022-11-24T11:38:09.938Z,4.43
2022-11-24T11:40:36.637Z,4.53
2022-11-24T11:43:33.199Z,5.03
2022-11-24T11:46:06.662Z,5.77
2022-11-24T11:48:43.163Z,4.60
2022-11-24T11:51:31.408Z,4.47
2022-11-24T11:54:18.671Z,4.43
2022-11-24T11:56:50.480Z,4.50
2022-11-24T11:59:40.084Z,4.23
2022-11-24T12:02:51.651Z,4.93
2022-11-24T12:05:51.105Z,4.67
2022-11-24T12:08:55.978Z,4.73
2022-11-24T12:11:39.767Z,4.77
2022-11-24T12:14:12.423Z,5.10
2022-11-24T12:17:13.526Z,5.00
2022-11-24T12:19:59.332Z,4.77
2022-11-24T12:22:50.957Z,4.80
2022-11-24T12:25:35.740Z,4.80
2022-11-24T12:28:06.756Z,5.17
2022-11-24T12:31:17.863Z,5.60
2022-11-24T12:34:01.354Z,5.97
2022-11-24T12:37:03.569Z,5.53
2022-11-24T12:39:46.107Z,4.80
2022-11-24T12:42:27.158Z,5.13
2022-11-24T12:45:08.726Z,4.73
2022-11-24T12:47:53.358Z,4.50
2022-11-24T12:50:22.503Z,4.67
2022-11-24T12:53:03.505Z,4.23
2022-11-24T12:55:33.459Z,4.40
2022-11-24T12:58:10.779Z,3.80
2022-11-24T13:00:48.150Z,3.67
2022-11-24T13:03:44.044Z,3.90
2022-11-24T13:06:13.702Z,3.70
2022-11-24T13:08:40.344Z,3.60
2022-11-24T13:11:22.066Z,3.40
2022-11-24T13:14:01.488Z,3.60
2022-11-24T13:16:36.888Z,4.13
2022-11-24T13:19:10.084Z,3.47
2022-11-24T13:21:36.718Z,4.50
2022-11-24T13:24:05.448Z,3.83
2022-11-24T13:26:43.800Z,3.53
2022-11-24T13:29:31.421Z,3.33
2022-11-24T13:32:00.985Z,3.67
2022-11-24T13:34:39.736Z,4.20
2022-11-24T13:37:33.643Z,3.50
2022-11-24T13:40:12.352Z,3.87
2022-11-24T13:42:57.547Z,3.50
2022-11-24T13:45:39.472Z,3.70
2022-11-24T13:48:21.942Z,3.57
2022-11-24T13:50:53.151Z,3.50
2022-11-24T13:53:38.031Z,3.63
2022-11-24T13:56:13.618Z,3.47
2022-11-24T13:58:40.059Z,3.20
2022-11-24T14:01:23.712Z,3.80
2022-11-24T14:04:30.437Z,3.73
2022-11-24T14:07:07.088Z,3.67
2022-11-24T14:09:43.386Z,3.10
2022-11-24T14:12:18.051Z,3.43
2022-11-24T14:14:48.178Z,3.47
2022-11-24T14:17:19.431Z,3.60
2022-11-24T14:19:48.694Z,3.70
2022-11-24T14:22:19.945Z,4.30
2022-11-24T14:24:52.401Z,3.70
2022-11-24T14:27:21.589Z,3.47
2022-11-24T14:29:56.107Z,3.47
2022-11-24T14:32:23.850Z,3.90
2022-11-24T14:34:52.077Z,3.77
2022-11-24T14:37:19.542Z,3.67
2022-11-24T14:39:46.334Z,3.63
2022-11-24T14:42:18.575Z,3.23
2022-11-24T14:44:59.335Z,3.53
2022-11-24T14:47:32.246Z,3.07
2022-11-24T14:50:16.794Z,3.70
2022-11-24T14:52:53.394Z,3.60
2022-11-24T14:55:25.767Z,3.83
2022-11-24T14:57:52.433Z,3.70
2022-11-24T15:00:24.932Z,3.43
2022-11-24T15:02:55.887Z,3.40
2022-11-24T15:05:24.684Z,3.70
2022-11-24T15:08:03.766Z,3.90
2022-11-24T15:10:37.812Z,3.97
2022-11-24T15:13:19.947Z,3.37
2022-11-24T15:15:57.611Z,4.00
2022-11-24T15:18:38.015Z,3.67
2022-11-24T15:21:04.740Z,3.63
2022-11-24T15:23:33.012Z,4.30
2022-11-24T15:26:02.492Z,4.83
2022-11-24T15:28:30.224Z,4.33
2022-11-24T15:31:03.188Z,4.77
2022-11-24T15:33:30.437Z,5.20
2022-11-24T15:35:57.057Z,4.80
2022-11-24T15:38:23.634Z,4.80
2022-11-24T15:40:51.934Z,5.20
2022-11-24T15:43:32.645Z,5.83
2022-11-24T15:46:00.619Z,5.33
2022-11-24T15:48:27.757Z,4.90
2022-11-24T15:50:54.823Z,5.60
2022-11-24T15:53:21.949Z,6.37
2022-11-24T15:55:48.759Z,5.60
2022-11-24T15:58:15.555Z,6.00
2022-11-24T16:00:43.384Z,6.93
2022-11-24T16:03:44.591Z,5.40
2022-11-24T16:05:57.777Z,7.20
2022-11-24T16:08:24.890Z,6.20
2022-11-24T16:10:51.568Z,6.20
2022-11-24T16:13:18.274Z,6.10
2022-11-24T16:15:45.487Z,6.70
2022-11-24T16:18:13.883Z,5.50
2022-11-24T16:20:40.433Z,6.57
2022-11-24T16:23:07.133Z,7.40
2022-11-24T16:25:33.677Z,7.43
2022-11-24T16:28:02.628Z,7.57
2022-11-24T16:30:29.093Z,7.53
2022-11-24T16:32:55.687Z,8.23
2022-11-24T16:35:22.255Z,7.70
2022-11-24T16:37:51.414Z,7.37
2022-11-24T16:40:18.409Z,8.20
2022-11-24T16:42:44.885Z,8.07
2022-11-24T16:45:12.787Z,7.90
2022-11-24T16:47:41.221Z,8.07
2022-11-24T16:50:09.248Z,8.17
2022-11-24T16:52:35.711Z,8.50
2022-11-24T16:55:02.235Z,8.13
2022-11-24T16:57:28.719Z,8.63
2022-11-24T16:59:55.297Z,8.33
2022-11-24T17:02:21.779Z,8.10
2022-11-24T17:04:52.091Z,9.73
2022-11-24T17:07:19.156Z,9.23
2022-11-24T17:09:45.712Z,8.73
2022-11-24T17:12:12.154Z,9.87
2022-11-24T17:14:38.588Z,8.60
2022-11-24T17:17:05.066Z,8.60
2022-11-24T17:19:31.904Z,8.10
2022-11-24T17:21:58.358Z,9.20
2022-11-24T17:24:24.912Z,9.13
2022-11-24T17:26:51.428Z,9.00
2022-11-24T17:29:18.198Z,8.60
2022-11-24T17:31:44.763Z,9.53
2022-11-24T17:34:11.842Z,9.43
2022-11-24T17:36:39.994Z,8.87
2022-11-24T17:39:09.548Z,8.17
2022-11-24T17:41:36.233Z,8.17
2022-11-24T17:44:02.938Z,9.07
2022-11-24T17:46:30.534Z,9.43
2022-11-24T17:48:57.283Z,9.03
2022-11-24T17:51:27.679Z,11.17
2022-11-24T17:53:55.446Z,9.30
2022-11-24T17:56:27.026Z,9.90
2022-11-24T17:58:54.870Z,11.27
2022-11-24T18:01:22.169Z,10.90
2022-11-24T18:03:53.421Z,10.63
2022-11-24T18:06:21.095Z,14.27
2022-11-24T18:08:48.457Z,14.23
2022-11-24T18:11:30.468Z,18.00
2022-11-24T18:14:00.948Z,14.20
2022-11-24T18:16:30.239Z,9.97
2022-11-24T18:19:14.059Z,8.37
2022-11-24T18:21:41.777Z,11.13
2022-11-24T18:24:12.467Z,10.47
2022-11-24T18:26:40.172Z,10.70
2022-11-24T18:29:06.593Z,11.47
2022-11-24T18:31:35.496Z,9.37
2022-11-24T18:34:03.235Z,11.87
2022-11-24T18:36:30.815Z,11.37
2022-11-24T18:39:00.358Z,12.53
2022-11-24T18:41:27.121Z,11.10
2022-11-24T18:43:53.552Z,11.33
2022-11-24T18:46:21.594Z,10.50
2022-11-24T18:48:48.181Z,12.43
2022-11-24T18:51:14.879Z,11.47
2022-11-24T18:53:42.656Z,12.67
2022-11-24T18:56:12.872Z,11.80
2022-11-24T18:58:39.590Z,10.87
2022-11-24T19:01:08.671Z,11.03
2022-11-24T19:03:52.357Z,12.90
2022-11-24T19:06:32.102Z,20.30
2022-11-24T19:09:04.362Z,13.60
2022-11-24T19:11:33.855Z,11.47
2022-11-24T19:14:01.474Z,12.30
2022-11-24T19:16:28.158Z,13.83
2022-11-24T19:19:00.061Z,11.83
2022-11-24T19:21:27.829Z,10.93
2022-11-24T19:23:55.203Z,12.40
2022-11-24T19:26:24.320Z,12.60
2022-11-24T19:28:51.121Z,13.80
2022-11-24T19:31:18.956Z,13.77
2022-11-24T19:33:46.030Z,12.60
2022-11-24T19:36:20.156Z,14.13
2022-11-24T19:38:54.286Z,13.57
2022-11-24T19:41:22.316Z,13.20
2022-11-24T19:43:48.884Z,12.73
2022-11-24T19:46:17.316Z,14.30
2022-11-24T19:48:54.212Z,14.83
2022-11-24T19:51:22.657Z,15.23
2022-11-24T19:53:49.249Z,13.87
2022-11-24T19:56:20.820Z,14.87
2022-11-24T19:58:48.420Z,13.50
2022-11-24T20:01:21.981Z,14.23
2022-11-24T20:04:23.304Z,14.27
2022-11-24T20:06:49.959Z,21.53
2022-11-24T20:09:17.453Z,15.50
2022-11-24T20:11:44.229Z,14.63
2022-11-24T20:14:12.826Z,16.20
2022-11-24T20:16:39.666Z,15.00
2022-11-24T20:19:09.431Z,15.70
2022-11-24T20:21:37.478Z,13.10
2022-11-24T20:24:05.568Z,13.50
2022-11-24T20:26:34.709Z,12.27
2022-11-24T20:29:01.676Z,12.97
2022-11-24T20:31:30.762Z,13.37
2022-11-24T20:33:57.498Z,12.40
2022-11-24T20:36:25.648Z,12.30
2022-11-24T20:38:52.606Z,12.70
2022-11-24T20:41:24.094Z,11.87
2022-11-24T20:43:51.634Z,10.73
2022-11-24T20:46:19.756Z,11.67
2022-11-24T20:48:46.725Z,12.33
2022-11-24T20:51:28.167Z,12.37
2022-11-24T20:54:01.027Z,11.17
2022-11-24T20:56:30.022Z,10.67
2022-11-24T20:58:56.768Z,11.53
2022-11-24T21:01:30.441Z,12.13
2022-11-24T21:03:58.750Z,11.37
2022-11-24T21:06:26.480Z,11.17
2022-11-24T21:08:52.967Z,11.00
2022-11-24T21:11:20.634Z,11.97
2022-11-24T21:13:48.632Z,11.30
2022-11-24T21:16:27.495Z,11.07
2022-11-24T21:19:05.385Z,11.90
2022-11-24T21:21:34.635Z,11.07
2022-11-24T21:24:06.843Z,11.23
2022-11-24T21:26:37.190Z,11.43
2022-11-24T21:29:04.123Z,12.20
2022-11-24T21:31:30.587Z,11.90
2022-11-24T21:33:57.026Z,13.27
2022-11-24T21:36:25.244Z,14.90
2022-11-24T21:38:53.411Z,14.00
2022-11-24T21:41:20.901Z,12.87
2022-11-24T21:43:47.850Z,12.07
2022-11-24T21:46:14.655Z,13.20
2022-11-24T21:48:42.126Z,13.23
2022-11-24T21:51:12.464Z,14.37
2022-11-24T21:53:39.273Z,13.97
2022-11-24T21:56:09.739Z,13.83
2022-11-24T21:58:36.549Z,16.13
2022-11-24T22:01:04.929Z,14.87
2022-11-24T22:03:31.706Z,12.43
2022-11-24T22:05:59.633Z,13.50
2022-11-24T22:08:27.429Z,14.83
2022-11-24T22:10:54.448Z,15.20
2022-11-24T22:13:20.822Z,17.40
2022-11-24T22:15:47.295Z,16.50
2022-11-24T22:18:13.780Z,17.53
2022-11-24T22:20:40.372Z,17.53
2022-11-24T22:23:06.785Z,16.70
2022-11-24T22:25:33.561Z,16.83
2022-11-24T22:27:59.975Z,16.47
2022-11-24T22:30:26.476Z,16.83
2022-11-24T22:32:53.090Z,16.87
2022-11-24T22:35:19.512Z,16.53
2022-11-24T22:37:46.043Z,16.97
2022-11-24T22:40:12.540Z,17.60
2022-11-24T22:42:39.043Z,17.40
2022-11-24T22:45:06.045Z,17.77
2022-11-24T22:47:32.451Z,18.43
2022-11-24T22:49:58.847Z,17.67
2022-11-24T22:52:25.291Z,17.17
2022-11-24T22:54:51.666Z,17.90
2022-11-24T22:57:18.096Z,18.73
2022-11-24T22:59:44.530Z,18.67
2022-11-24T23:02:10.959Z,17.83
2022-11-24T23:04:37.666Z,18.33
2022-11-24T23:07:04.202Z,18.50
2022-11-24T23:09:30.649Z,19.57
2022-11-24T23:11:57.046Z,18.53
2022-11-24T23:14:23.452Z,20.20
2022-11-24T23:16:49.887Z,19.57
2022-11-24T23:19:16.341Z,22.10
2022-11-24T23:21:42.726Z,20.10
2022-11-24T23:24:10.026Z,20.47
2022-11-24T23:26:38.874Z,20.33
2022-11-24T23:29:05.841Z,20.57
2022-11-24T23:31:32.752Z,20.53
2022-11-24T23:34:00.814Z,20.57
2022-11-24T23:36:27.926Z,20.70
2022-11-24T23:38:54.705Z,19.03
2022-11-24T23:41:24.236Z,20.23
2022-11-24T23:43:52.213Z,20.03
2022-11-24T23:46:20.769Z,20.13
2022-11-24T23:48:47.999Z,20.27
2022-11-24T23:51:17.460Z,20.57
2022-11-24T23:53:44.536Z,21.03
2022-11-24T23:56:16.731Z,19.97
2022-11-24T23:58:43.916Z,20.07
